sensor_id;sensor_type;location;lat;lon;timestamp;pressure;altitude;pressure_sealevel;temperature;humidity
35224;BME280;21367;51.930;8.112;2022-11-04T00:02:34;99416.28;;;11.07;100.00
35224;BME280;21367;51.930;8.112;2022-11-04T00:07:38;99436.66;;;10.98;100.00
35224;BME280;21367;51.930;8.112;2022-11-04T00:12:57;99444.44;;;11.03;100.00
35224;BME280;21367;51.930;8.112;2022-11-04T00:18:01;99444.50;;;11.06;100.00
35224;BME280;21367;51.930;8.112;2022-11-04T00:23:05;99440.44;;;11.16;100.00
35224;BME280;21367;51.930;8.112;2022-11-04T00:28:24;99442.97;;;11.14;100.00
35224;BME280;21367;51.930;8.112;2022-11-04T00:33:40;99449.88;;;11.17;100.00
35224;BME280;21367;51.930;8.112;2022-11-04T00:38:44;99454.97;;;11.14;100.00
35224;BME280;21367;51.930;8.112;2022-11-04T00:43:51;99464.13;;;11.01;100.00
35224;BME280;21367;51.930;8.112;2022-11-04T00:48:56;99448.53;;;10.92;100.00
35224;BME280;21367;51.930;8.112;2022-11-04T00:54:00;99456.97;;;10.86;100.00
35224;BME280;21367;51.930;8.112;2022-11-04T00:59:10;99473.25;;;10.86;100.00
35224;BME280;21367;51.930;8.112;2022-11-04T01:04:14;99486.84;;;10.81;100.00
35224;BME280;21367;51.930;8.112;2022-11-04T01:09:18;99531.00;;;10.63;100.00
35224;BME280;21367;51.930;8.112;2022-11-04T01:14:25;99540.16;;;10.50;100.00
35224;BME280;21367;51.930;8.112;2022-11-04T01:19:30;99553.84;;;10.51;100.00
35224;BME280;21367;51.930;8.112;2022-11-04T01:24:34;99581.91;;;10.43;100.00
35224;BME280;21367;51.930;8.112;2022-11-04T01:29:41;99569.75;;;10.36;100.00
35224;BME280;21367;51.930;8.112;2022-11-04T01:34:45;99587.38;;;10.22;100.00
35224;BME280;21367;51.930;8.112;2022-11-04T01:39:49;99583.22;;;10.27;100.00
35224;BME280;21367;51.930;8.112;2022-11-04T01:44:58;99599.19;;;10.15;100.00
35224;BME280;21367;51.930;8.112;2022-11-04T01:50:06;99617.63;;;10.02;100.00
35224;BME280;21367;51.930;8.112;2022-11-04T01:55:13;99604.88;;;10.05;100.00
35224;BME280;21367;51.930;8.112;2022-11-04T02:00:22;99619.19;;;9.95;100.00
35224;BME280;21367;51.930;8.112;2022-11-04T02:05:26;99618.31;;;9.95;100.00
35224;BME280;21367;51.930;8.112;2022-11-04T02:10:31;99616.66;;;9.97;100.00
35224;BME280;21367;51.930;8.112;2022-11-04T02:15:44;99619.25;;;9.99;100.00
35224;BME280;21367;51.930;8.112;2022-11-04T02:21:02;99619.19;;;9.95;100.00
35224;BME280;21367;51.930;8.112;2022-11-04T02:26:27;99610.16;;;9.78;100.00
35224;BME280;21367;51.930;8.112;2022-11-04T02:31:41;99613.19;;;9.65;100.00
35224;BME280;21367;51.930;8.112;2022-11-04T02:36:53;99614.53;;;9.50;100.00
35224;BME280;21367;51.930;8.112;2022-11-04T02:42:03;99612.63;;;9.43;100.00
35224;BME280;21367;51.930;8.112;2022-11-04T02:47:16;99623.00;;;9.48;100.00
35224;BME280;21367;51.930;8.112;2022-11-04T02:52:26;99611.72;;;9.43;100.00
35224;BME280;21367;51.930;8.112;2022-11-04T02:57:34;99615.09;;;9.40;100.00
35224;BME280;21367;51.930;8.112;2022-11-04T03:02:45;99613.34;;;9.39;100.00
35224;BME280;21367;51.930;8.112;2022-11-04T03:07:55;99610.16;;;9.48;100.00
35224;BME280;21367;51.930;8.112;2022-11-04T03:13:05;99627.28;;;9.49;100.00
35224;BME280;21367;51.930;8.112;2022-11-04T03:18:18;99624.47;;;9.40;100.00
35224;BME280;21367;51.930;8.112;2022-11-04T03:23:25;99636.41;;;9.39;100.00
35224;BME280;21367;51.930;8.112;2022-11-04T03:28:39;99638.00;;;9.34;100.00
35224;BME280;21367;51.930;8.112;2022-11-04T03:33:49;99645.72;;;9.36;100.00
35224;BME280;21367;51.930;8.112;2022-11-04T03:38:53;99657.59;;;9.34;100.00
35224;BME280;21367;51.930;8.112;2022-11-04T03:43:57;99669.53;;;9.32;100.00
35224;BME280;21367;51.930;8.112;2022-11-04T03:49:05;99680.53;;;9.27;100.00
35224;BME280;21367;51.930;8.112;2022-11-04T03:54:10;99696.06;;;9.34;100.00
35224;BME280;21367;51.930;8.112;2022-11-04T03:59:27;99699.34;;;9.57;100.00
35224;BME280;21367;51.930;8.112;2022-11-04T04:04:45;99706.78;;;9.49;100.00
35224;BME280;21367;51.930;8.112;2022-11-04T04:09:54;99699.91;;;9.46;100.00
35224;BME280;21367;51.930;8.112;2022-11-04T04:15:05;99709.34;;;9.49;100.00
35224;BME280;21367;51.930;8.112;2022-11-04T04:20:15;99720.94;;;9.36;100.00
35224;BME280;21367;51.930;8.112;2022-11-04T04:25:23;99718.75;;;9.48;100.00
35224;BME280;21367;51.930;8.112;2022-11-04T04:30:41;99716.69;;;9.37;100.00
35224;BME280;21367;51.930;8.112;2022-11-04T04:35:53;99724.72;;;9.47;100.00
35224;BME280;21367;51.930;8.112;2022-11-04T04:41:02;99722.34;;;9.54;100.00
35224;BME280;21367;51.930;8.112;2022-11-04T04:46:21;99728.59;;;9.35;100.00
35224;BME280;21367;51.930;8.112;2022-11-04T04:51:29;99731.94;;;9.32;100.00
35224;BME280;21367;51.930;8.112;2022-11-04T04:56:33;99729.81;;;9.19;100.00
35224;BME280;21367;51.930;8.112;2022-11-04T05:01:37;99733.88;;;9.12;100.00
35224;BME280;21367;51.930;8.112;2022-11-04T05:06:44;99759.25;;;9.04;100.00
35224;BME280;21367;51.930;8.112;2022-11-04T05:11:48;99768.09;;;9.14;100.00
35224;BME280;21367;51.930;8.112;2022-11-04T05:16:52;99768.22;;;9.17;100.00
35224;BME280;21367;51.930;8.112;2022-11-04T05:21:59;99768.97;;;9.15;100.00
35224;BME280;21367;51.930;8.112;2022-11-04T05:27:03;99772.47;;;9.17;100.00
35224;BME280;21367;51.930;8.112;2022-11-04T05:32:07;99784.31;;;9.13;100.00
35224;BME280;21367;51.930;8.112;2022-11-04T05:37:14;99798.25;;;8.96;100.00
35224;BME280;21367;51.930;8.112;2022-11-04T05:42:18;99810.19;;;8.95;100.00
35224;BME280;21367;51.930;8.112;2022-11-04T05:47:22;99813.03;;;9.03;100.00
35224;BME280;21367;51.930;8.112;2022-11-04T05:52:33;99806.94;;;8.99;100.00
35224;BME280;21367;51.930;8.112;2022-11-04T05:57:37;99827.25;;;8.95;100.00
35224;BME280;21367;51.930;8.112;2022-11-04T06:02:41;99826.16;;;9.12;100.00
35224;BME280;21367;51.930;8.112;2022-11-04T06:07:48;99840.25;;;9.25;100.00
35224;BME280;21367;51.930;8.112;2022-11-04T06:12:52;99852.03;;;9.20;100.00
35224;BME280;21367;51.930;8.112;2022-11-04T06:17:56;99855.16;;;9.37;100.00
35224;BME280;21367;51.930;8.112;2022-11-04T06:23:05;99862.91;;;9.38;100.00
35224;BME280;21367;51.930;8.112;2022-11-04T06:28:09;99865.16;;;9.29;100.00
35224;BME280;21367;51.930;8.112;2022-11-04T06:33:12;99876.50;;;9.36;100.00
35224;BME280;21367;51.930;8.112;2022-11-04T06:38:19;99873.81;;;9.33;100.00
35224;BME280;21367;51.930;8.112;2022-11-04T06:43:25;99873.81;;;9.33;100.00
35224;BME280;21367;51.930;8.112;2022-11-04T06:48:30;99891.53;;;9.25;100.00
35224;BME280;21367;51.930;8.112;2022-11-04T06:53:37;99902.69;;;9.27;100.00
35224;BME280;21367;51.930;8.112;2022-11-04T06:58:41;99895.22;;;9.33;100.00
35224;BME280;21367;51.930;8.112;2022-11-04T07:03:48;99890.25;;;9.38;100.00
35224;BME280;21367;51.930;8.112;2022-11-04T07:08:56;99896.44;;;9.44;100.00
35224;BME280;21367;51.930;8.112;2022-11-04T07:14:00;99910.69;;;9.36;100.00
35224;BME280;21367;51.930;8.112;2022-11-04T07:19:05;99925.22;;;9.36;100.00
35224;BME280;21367;51.930;8.112;2022-11-04T07:24:12;99932.97;;;9.63;100.00
35224;BME280;21367;51.930;8.112;2022-11-04T07:29:16;99924.50;;;9.40;100.00
35224;BME280;21367;51.930;8.112;2022-11-04T07:34:20;99944.88;;;9.61;100.00
35224;BME280;21367;51.930;8.112;2022-11-04T07:39:27;99955.69;;;9.52;100.00
35224;BME280;21367;51.930;8.112;2022-11-04T07:44:31;99955.19;;;9.62;100.00
35224;BME280;21367;51.930;8.112;2022-11-04T07:49:35;99952.41;;;9.82;100.00
35224;BME280;21367;51.930;8.112;2022-11-04T07:54:42;99963.34;;;9.76;100.00
35224;BME280;21367;51.930;8.112;2022-11-04T07:59:46;99950.84;;;9.87;100.00
35224;BME280;21367;51.930;8.112;2022-11-04T08:04:50;99945.03;;;9.91;100.00
35224;BME280;21367;51.930;8.112;2022-11-04T08:09:57;99964.66;;;10.16;100.00
35224;BME280;21367;51.930;8.112;2022-11-04T08:15:02;99960.34;;;9.89;100.00
35224;BME280;21367;51.930;8.112;2022-11-04T08:20:07;99956.31;;;10.25;100.00
35224;BME280;21367;51.930;8.112;2022-11-04T08:25:14;99962.78;;;10.37;100.00
35224;BME280;21367;51.930;8.112;2022-11-04T08:30:19;99978.31;;;10.42;100.00
35224;BME280;21367;51.930;8.112;2022-11-04T08:35:23;99991.56;;;10.56;100.00
35224;BME280;21367;51.930;8.112;2022-11-04T08:40:30;99991.66;;;10.59;100.00
35224;BME280;21367;51.930;8.112;2022-11-04T08:45:38;99998.59;;;10.90;97.67
35224;BME280;21367;51.930;8.112;2022-11-04T08:50:43;99994.47;;;11.25;95.76
35224;BME280;21367;51.930;8.112;2022-11-04T08:55:53;100011.63;;;11.26;96.01
35224;BME280;21367;51.930;8.112;2022-11-04T09:01:02;100016.34;;;11.11;95.88
35224;BME280;21367;51.930;8.112;2022-11-04T09:06:08;99998.69;;;11.23;93.93
35224;BME280;21367;51.930;8.112;2022-11-04T09:11:16;99987.38;;;11.48;93.62
35224;BME280;21367;51.930;8.112;2022-11-04T09:16:20;99987.47;;;11.53;91.34
35224;BME280;21367;51.930;8.112;2022-11-04T09:21:25;100003.69;;;11.19;91.77
35224;BME280;21367;51.930;8.112;2022-11-04T09:26:33;99973.56;;;11.46;91.21
35224;BME280;21367;51.930;8.112;2022-11-04T09:31:37;99964.75;;;11.37;92.05
35224;BME280;21367;51.930;8.112;2022-11-04T09:36:43;99972.91;;;11.22;91.79
35224;BME280;21367;51.930;8.112;2022-11-04T09:42:01;99981.09;;;11.07;93.27
35224;BME280;21367;51.930;8.112;2022-11-04T09:47:10;99982.50;;;11.27;93.89
35224;BME280;21367;51.930;8.112;2022-11-04T09:52:16;99996.22;;;11.26;94.21
35224;BME280;21367;51.930;8.112;2022-11-04T09:57:24;99983.34;;;11.26;91.67
35224;BME280;21367;51.930;8.112;2022-11-04T10:02:39;99978.47;;;11.37;92.81
35224;BME280;21367;51.930;8.112;2022-11-04T10:08:04;99997.16;;;11.62;92.13
35224;BME280;21367;51.930;8.112;2022-11-04T10:13:22;100011.63;;;11.88;89.58
35224;BME280;21367;51.930;8.112;2022-11-04T10:18:41;100019.91;;;12.11;88.31
35224;BME280;21367;51.930;8.112;2022-11-04T10:23:59;100034.59;;;12.15;88.21
35224;BME280;21367;51.930;8.112;2022-11-04T10:29:14;100027.09;;;12.61;86.44
35224;BME280;21367;51.930;8.112;2022-11-04T10:34:27;100032.47;;;12.34;86.49
35224;BME280;21367;51.930;8.112;2022-11-04T10:39:43;100037.44;;;12.62;85.97
35224;BME280;21367;51.930;8.112;2022-11-04T10:44:51;100053.75;;;12.61;84.68
35224;BME280;21367;51.930;8.112;2022-11-04T10:50:16;100043.84;;;12.43;85.49
35224;BME280;21367;51.930;8.112;2022-11-04T10:55:32;100041.22;;;12.40;85.76
35224;BME280;21367;51.930;8.112;2022-11-04T11:00:42;100056.06;;;12.50;85.05
35224;BME280;21367;51.930;8.112;2022-11-04T11:05:46;100054.09;;;12.77;83.76
35224;BME280;21367;51.930;8.112;2022-11-04T12:07:24;100074.56;;;13.93;77.97
35224;BME280;21367;51.930;8.112;2022-11-04T12:12:42;100061.00;;;14.56;75.40
35224;BME280;21367;51.930;8.112;2022-11-04T12:18:00;100060.59;;;14.88;72.77
35224;BME280;21367;51.930;8.112;2022-11-04T12:34:33;100060.84;;;13.97;74.65
35224;BME280;21367;51.930;8.112;2022-11-04T12:39:49;100062.28;;;14.31;74.27
35224;BME280;21367;51.930;8.112;2022-11-04T12:45:06;100063.41;;;13.97;75.44
35224;BME280;21367;51.930;8.112;2022-11-04T12:56:06;100069.31;;;15.63;72.39
35224;BME280;21367;51.930;8.112;2022-11-04T13:01:15;100074.81;;;15.91;70.28
35224;BME280;21367;51.930;8.112;2022-11-04T13:06:25;100070.50;;;15.90;68.86
35224;BME280;21367;51.930;8.112;2022-11-04T13:11:38;100081.69;;;15.86;66.54
35224;BME280;21367;51.930;8.112;2022-11-04T13:16:45;100092.03;;;15.83;66.57
35224;BME280;21367;51.930;8.112;2022-11-04T13:21:52;100103.63;;;16.18;65.84
35224;BME280;21367;51.930;8.112;2022-11-04T13:27:03;100092.72;;;16.59;65.41
35224;BME280;21367;51.930;8.112;2022-11-04T13:32:11;100109.47;;;17.01;69.79
35224;BME280;21367;51.930;8.112;2022-11-04T13:37:23;100110.53;;;17.37;68.34
35224;BME280;21367;51.930;8.112;2022-11-04T13:43:02;100117.53;;;17.50;61.24
35224;BME280;21367;51.930;8.112;2022-11-04T13:48:24;100111.72;;;18.43;61.28
35224;BME280;21367;51.930;8.112;2022-11-04T13:53:40;100122.06;;;18.07;62.72
35224;BME280;21367;51.930;8.112;2022-11-04T13:58:50;100124.75;;;18.82;60.17
35224;BME280;21367;51.930;8.112;2022-11-04T14:04:04;100127.22;;;17.85;61.21
35224;BME280;21367;51.930;8.112;2022-11-04T14:09:31;100129.03;;;18.58;60.46
35224;BME280;21367;51.930;8.112;2022-11-04T14:14:40;100136.81;;;18.20;60.01
35224;BME280;21367;51.930;8.112;2022-11-04T14:19:47;100142.53;;;17.31;62.00
35224;BME280;21367;51.930;8.112;2022-11-04T14:25:02;100152.38;;;17.95;61.74
35224;BME280;21367;51.930;8.112;2022-11-04T14:30:33;100166.06;;;17.59;62.17
35224;BME280;21367;51.930;8.112;2022-11-04T14:35:37;100180.53;;;17.13;64.02
35224;BME280;21367;51.930;8.112;2022-11-04T14:40:47;100177.66;;;15.95;67.68
35224;BME280;21367;51.930;8.112;2022-11-04T14:45:56;100191.88;;;14.98;70.08
35224;BME280;21367;51.930;8.112;2022-11-04T14:51:02;100206.34;;;14.39;71.76
35224;BME280;21367;51.930;8.112;2022-11-04T14:56:13;100204.38;;;14.27;73.11
35224;BME280;21367;51.930;8.112;2022-11-04T15:01:20;100215.41;;;14.17;74.57
35224;BME280;21367;51.930;8.112;2022-11-04T15:06:26;100221.56;;;13.41;77.55
35224;BME280;21367;51.930;8.112;2022-11-04T15:11:38;100234.63;;;13.49;79.06
35224;BME280;21367;51.930;8.112;2022-11-04T15:16:58;100241.88;;;13.26;80.52
35224;BME280;21367;51.930;8.112;2022-11-04T15:22:05;100243.47;;;13.23;80.89
35224;BME280;21367;51.930;8.112;2022-11-04T15:27:12;100252.34;;;12.99;81.15
35224;BME280;21367;51.930;8.112;2022-11-04T15:32:22;100258.94;;;12.88;83.54
35224;BME280;21367;51.930;8.112;2022-11-04T15:37:29;100259.69;;;12.84;83.90
35224;BME280;21367;51.930;8.112;2022-11-04T15:42:33;100271.28;;;12.66;84.83
35224;BME280;21367;51.930;8.112;2022-11-04T15:47:45;100276.16;;;12.56;85.74
35224;BME280;21367;51.930;8.112;2022-11-04T15:52:52;100283.59;;;12.45;86.84
35224;BME280;21367;51.930;8.112;2022-11-04T15:57:56;100300.88;;;12.19;86.56
35224;BME280;21367;51.930;8.112;2022-11-04T16:03:03;100297.06;;;12.04;83.61
35224;BME280;21367;51.930;8.112;2022-11-04T16:08:18;100317.09;;;12.15;83.35
35224;BME280;21367;51.930;8.112;2022-11-04T16:13:24;100319.03;;;11.93;83.84
35224;BME280;21367;51.930;8.112;2022-11-04T16:18:38;100339.28;;;12.10;83.57
35224;BME280;21367;51.930;8.112;2022-11-04T16:23:46;100356.91;;;11.70;86.31
35224;BME280;21367;51.930;8.112;2022-11-04T16:28:53;100363.28;;;11.54;93.12
35224;BME280;21367;51.930;8.112;2022-11-04T16:34:01;100355.09;;;11.15;97.21
35224;BME280;21367;51.930;8.112;2022-11-04T16:39:05;100357.41;;;11.07;97.49
35224;BME280;21367;51.930;8.112;2022-11-04T16:44:14;100360.84;;;11.08;98.34
35224;BME280;21367;51.930;8.112;2022-11-04T16:49:24;100369.84;;;10.95;96.44
35224;BME280;21367;51.930;8.112;2022-11-04T16:54:28;100374.53;;;10.81;97.70
35224;BME280;21367;51.930;8.112;2022-11-04T16:59:32;100371.00;;;10.79;99.70
35224;BME280;21367;51.930;8.112;2022-11-04T17:04:39;100379.25;;;10.71;100.00
35224;BME280;21367;51.930;8.112;2022-11-04T17:09:45;100388.84;;;10.52;100.00
35224;BME280;21367;51.930;8.112;2022-11-04T17:14:49;100389.28;;;10.63;100.00
35224;BME280;21367;51.930;8.112;2022-11-04T17:19:56;100384.03;;;10.60;100.00
35224;BME280;21367;51.930;8.112;2022-11-04T17:25:01;100389.53;;;10.47;100.00
35224;BME280;21367;51.930;8.112;2022-11-04T17:30:06;100393.00;;;10.49;100.00
35224;BME280;21367;51.930;8.112;2022-11-04T17:35:16;100396.34;;;10.46;100.00
35224;BME280;21367;51.930;8.112;2022-11-04T17:40:21;100398.16;;;10.49;100.00
35224;BME280;21367;51.930;8.112;2022-11-04T17:45:26;100408.09;;;10.39;100.00
35224;BME280;21367;51.930;8.112;2022-11-04T17:50:33;100411.53;;;10.40;100.00
35224;BME280;21367;51.930;8.112;2022-11-04T17:55:38;100420.31;;;10.24;100.00
35224;BME280;21367;51.930;8.112;2022-11-04T18:00:43;100440.22;;;10.28;100.00
35224;BME280;21367;51.930;8.112;2022-11-04T18:05:59;100440.38;;;10.12;100.00
35224;BME280;21367;51.930;8.112;2022-11-04T18:11:06;100446.84;;;10.02;100.00
35224;BME280;21367;51.930;8.112;2022-11-04T18:16:11;100447.59;;;10.00;100.00
35224;BME280;21367;51.930;8.112;2022-11-04T18:21:19;100455.56;;;9.85;100.00
35224;BME280;21367;51.930;8.112;2022-11-04T18:26:23;100451.75;;;9.75;100.00
35224;BME280;21367;51.930;8.112;2022-11-04T18:31:29;100456.13;;;9.57;100.00
35224;BME280;21367;51.930;8.112;2022-11-04T18:36:37;100465.28;;;9.52;100.00
35224;BME280;21367;51.930;8.112;2022-11-04T18:41:41;100471.47;;;9.36;100.00
35224;BME280;21367;51.930;8.112;2022-11-04T18:46:45;100466.28;;;9.15;100.00
35224;BME280;21367;51.930;8.112;2022-11-04T18:51:52;100465.13;;;9.08;100.00
35224;BME280;21367;51.930;8.112;2022-11-04T18:56:56;100467.22;;;8.97;100.00
35224;BME280;21367;51.930;8.112;2022-11-04T19:02:01;100471.47;;;8.97;100.00
35224;BME280;21367;51.930;8.112;2022-11-04T19:07:08;100473.50;;;8.85;100.00
35224;BME280;21367;51.930;8.112;2022-11-04T19:12:12;100478.88;;;8.71;100.00
35224;BME280;21367;51.930;8.112;2022-11-04T19:17:29;100497.41;;;8.66;100.00
35224;BME280;21367;51.930;8.112;2022-11-04T19:22:36;100484.16;;;8.74;100.00
35224;BME280;21367;51.930;8.112;2022-11-04T19:27:40;100498.75;;;8.77;100.00
35224;BME280;21367;51.930;8.112;2022-11-04T19:32:44;100501.03;;;8.71;100.00
35224;BME280;21367;51.930;8.112;2022-11-04T19:37:50;100503.44;;;8.68;100.00
35224;BME280;21367;51.930;8.112;2022-11-04T19:42:55;100508.72;;;8.71;100.00
35224;BME280;21367;51.930;8.112;2022-11-04T19:48:23;100505.72;;;8.79;100.00
35224;BME280;21367;51.930;8.112;2022-11-04T19:53:29;100523.59;;;8.78;100.00
35224;BME280;21367;51.930;8.112;2022-11-04T19:58:34;100530.41;;;8.77;100.00
35224;BME280;21367;51.930;8.112;2022-11-04T20:03:38;100541.31;;;8.73;100.00
35224;BME280;21367;51.930;8.112;2022-11-04T20:08:46;100543.66;;;8.69;100.00
35224;BME280;21367;51.930;8.112;2022-11-04T20:13:52;100548.63;;;8.66;100.00
35224;BME280;21367;51.930;8.112;2022-11-04T20:18:58;100546.50;;;8.57;100.00
35224;BME280;21367;51.930;8.112;2022-11-04T20:24:09;100556.25;;;8.46;100.00
35224;BME280;21367;51.930;8.112;2022-11-04T20:29:13;100567.63;;;8.35;100.00
35224;BME280;21367;51.930;8.112;2022-11-04T20:34:18;100576.91;;;8.33;100.00
35224;BME280;21367;51.930;8.112;2022-11-04T20:39:25;100593.91;;;8.31;100.00
35224;BME280;21367;51.930;8.112;2022-11-04T20:44:29;100596.31;;;8.28;100.00
35224;BME280;21367;51.930;8.112;2022-11-04T20:49:33;100600.97;;;8.37;100.00
35224;BME280;21367;51.930;8.112;2022-11-04T20:54:41;100599.56;;;8.42;100.00
35224;BME280;21367;51.930;8.112;2022-11-04T20:59:45;100607.72;;;8.34;100.00
35224;BME280;21367;51.930;8.112;2022-11-04T21:04:48;100611.88;;;8.32;100.00
35224;BME280;21367;51.930;8.112;2022-11-04T21:09:55;100628.63;;;8.26;100.00
35224;BME280;21367;51.930;8.112;2022-11-04T21:15:00;100630.56;;;8.14;100.00
35224;BME280;21367;51.930;8.112;2022-11-04T21:20:04;100637.72;;;8.37;100.00
35224;BME280;21367;51.930;8.112;2022-11-04T21:25:12;100640.38;;;8.39;100.00
35224;BME280;21367;51.930;8.112;2022-11-04T21:30:15;100659.09;;;8.38;100.00
35224;BME280;21367;51.930;8.112;2022-11-04T21:35:20;100660.38;;;8.29;100.00
35224;BME280;21367;51.930;8.112;2022-11-04T21:40:26;100666.38;;;8.30;100.00
35224;BME280;21367;51.930;8.112;2022-11-04T21:45:32;100673.81;;;8.42;100.00
35224;BME280;21367;51.930;8.112;2022-11-04T21:50:36;100679.97;;;8.29;100.00
35224;BME280;21367;51.930;8.112;2022-11-04T21:55:43;100677.38;;;8.27;100.00
35224;BME280;21367;51.930;8.112;2022-11-04T22:00:53;100690.78;;;8.40;100.00
35224;BME280;21367;51.930;8.112;2022-11-04T22:05:58;100701.34;;;8.46;100.00
35224;BME280;21367;51.930;8.112;2022-11-04T22:11:11;100711.38;;;8.41;100.00
35224;BME280;21367;51.930;8.112;2022-11-04T22:16:18;100718.72;;;8.51;100.00
35224;BME280;21367;51.930;8.112;2022-11-04T22:21:23;100708.09;;;8.44;100.00
35224;BME280;21367;51.930;8.112;2022-11-04T22:26:31;100706.31;;;8.43;100.00
35224;BME280;21367;51.930;8.112;2022-11-04T22:31:36;100703.34;;;8.35;100.00
35224;BME280;21367;51.930;8.112;2022-11-04T22:36:42;100718.16;;;8.24;100.00
35224;BME280;21367;51.930;8.112;2022-11-04T22:41:49;100719.28;;;8.13;100.00
35224;BME280;21367;51.930;8.112;2022-11-04T22:46:53;100726.66;;;7.91;100.00
35224;BME280;21367;51.930;8.112;2022-11-04T22:51:57;100730.28;;;7.79;100.00
35224;BME280;21367;51.930;8.112;2022-11-04T22:57:04;100740.03;;;7.70;100.00
35224;BME280;21367;51.930;8.112;2022-11-04T23:02:08;100739.00;;;7.67;100.00
35224;BME280;21367;51.930;8.112;2022-11-04T23:07:12;100742.09;;;7.61;100.00
35224;BME280;21367;51.930;8.112;2022-11-04T23:12:19;100750.25;;;7.54;100.00
35224;BME280;21367;51.930;8.112;2022-11-04T23:17:35;100752.44;;;7.62;100.00
35224;BME280;21367;51.930;8.112;2022-11-04T23:22:51;100760.13;;;7.48;100.00
35224;BME280;21367;51.930;8.112;2022-11-04T23:28:10;100752.94;;;7.40;100.00
35224;BME280;21367;51.930;8.112;2022-11-04T23:33:26;100762.34;;;7.41;100.00
35224;BME280;21367;51.930;8.112;2022-11-04T23:38:42;100763.16;;;7.26;100.00
35224;BME280;21367;51.930;8.112;2022-11-04T23:43:49;100765.22;;;7.16;100.00
35224;BME280;21367;51.930;8.112;2022-11-04T23:48:53;100766.63;;;7.11;100.00
35224;BME280;21367;51.930;8.112;2022-11-04T23:54:22;100768.50;;;6.99;100.00
35224;BME280;21367;51.930;8.112;2022-11-04T23:59:40;100772.09;;;7.03;100.00
